METAR Data
IDs: Format: Raw Decoded Include TAF

Data at: 1410 UTC 27 Nov 2021

EBAW 271350Z 21006KT 9999 SCT013 04/01 Q0991 BECMG BKN012